sensor_id;sensor_type;location;lat;lon;timestamp;P1;durP1;ratioP1;P2;durP2;ratioP2
22644;SDS011;11489;50.834;6.752;2023-06-10T00:02:20;9.02;;;8.13;;
22644;SDS011;11489;50.834;6.752;2023-06-10T00:04:46;8.60;;;7.15;;
22644;SDS011;11489;50.834;6.752;2023-06-10T00:07:12;11.13;;;7.57;;
22644;SDS011;11489;50.834;6.752;2023-06-10T00:09:38;9.20;;;7.72;;
22644;SDS011;11489;50.834;6.752;2023-06-10T00:12:04;8.30;;;7.05;;
22644;SDS011;11489;50.834;6.752;2023-06-10T00:14:31;7.97;;;7.18;;
22644;SDS011;11489;50.834;6.752;2023-06-10T00:16:58;9.40;;;7.60;;
22644;SDS011;11489;50.834;6.752;2023-06-10T00:19:24;9.93;;;7.45;;
22644;SDS011;11489;50.834;6.752;2023-06-10T00:21:51;8.85;;;7.47;;
22644;SDS011;11489;50.834;6.752;2023-06-10T00:24:17;8.30;;;7.45;;
22644;SDS011;11489;50.834;6.752;2023-06-10T00:26:43;8.13;;;7.20;;
22644;SDS011;11489;50.834;6.752;2023-06-10T00:29:08;8.20;;;7.40;;
22644;SDS011;11489;50.834;6.752;2023-06-10T00:31:35;8.60;;;7.55;;
22644;SDS011;11489;50.834;6.752;2023-06-10T00:34:01;9.70;;;7.82;;
22644;SDS011;11489;50.834;6.752;2023-06-10T00:36:27;9.63;;;7.22;;
22644;SDS011;11489;50.834;6.752;2023-06-10T00:38:53;9.70;;;7.70;;
22644;SDS011;11489;50.834;6.752;2023-06-10T00:41:19;10.65;;;7.75;;
22644;SDS011;11489;50.834;6.752;2023-06-10T00:43:44;11.15;;;7.93;;
22644;SDS011;11489;50.834;6.752;2023-06-10T00:46:11;9.88;;;7.82;;
22644;SDS011;11489;50.834;6.752;2023-06-10T00:48:37;10.32;;;7.70;;
22644;SDS011;11489;50.834;6.752;2023-06-10T00:51:04;10.18;;;7.90;;
22644;SDS011;11489;50.834;6.752;2023-06-10T00:53:30;9.38;;;7.38;;
22644;SDS011;11489;50.834;6.752;2023-06-10T00:55:57;8.93;;;8.02;;
22644;SDS011;11489;50.834;6.752;2023-06-10T00:58:24;9.63;;;7.70;;
22644;SDS011;11489;50.834;6.752;2023-06-10T01:00:50;8.30;;;7.43;;
22644;SDS011;11489;50.834;6.752;2023-06-10T01:03:16;9.05;;;7.72;;
22644;SDS011;11489;50.834;6.752;2023-06-10T01:05:43;8.40;;;7.50;;
22644;SDS011;11489;50.834;6.752;2023-06-10T01:08:28;10.25;;;7.82;;
22644;SDS011;11489;50.834;6.752;2023-06-10T01:11:04;9.13;;;7.65;;
22644;SDS011;11489;50.834;6.752;2023-06-10T01:13:38;9.18;;;8.15;;
22644;SDS011;11489;50.834;6.752;2023-06-10T01:16:06;8.98;;;8.07;;
22644;SDS011;11489;50.834;6.752;2023-06-10T01:18:32;11.07;;;7.60;;
22644;SDS011;11489;50.834;6.752;2023-06-10T01:20:58;11.02;;;8.35;;
22644;SDS011;11489;50.834;6.752;2023-06-10T01:23:24;9.18;;;7.97;;
22644;SDS011;11489;50.834;6.752;2023-06-10T01:26:03;8.73;;;7.82;;
22644;SDS011;11489;50.834;6.752;2023-06-10T01:28:50;9.70;;;8.70;;
22644;SDS011;11489;50.834;6.752;2023-06-10T01:31:33;11.07;;;7.88;;
22644;SDS011;11489;50.834;6.752;2023-06-10T01:34:14;11.07;;;8.23;;
22644;SDS011;11489;50.834;6.752;2023-06-10T01:36:42;9.93;;;8.85;;
22644;SDS011;11489;50.834;6.752;2023-06-10T01:39:11;10.43;;;8.32;;
22644;SDS011;11489;50.834;6.752;2023-06-10T01:41:38;11.15;;;8.23;;
22644;SDS011;11489;50.834;6.752;2023-06-10T01:44:05;9.32;;;8.25;;
22644;SDS011;11489;50.834;6.752;2023-06-10T01:46:31;10.63;;;9.05;;
22644;SDS011;11489;50.834;6.752;2023-06-10T01:48:56;11.55;;;8.82;;
22644;SDS011;11489;50.834;6.752;2023-06-10T01:51:22;9.30;;;8.40;;
22644;SDS011;11489;50.834;6.752;2023-06-10T01:53:48;11.10;;;9.00;;
22644;SDS011;11489;50.834;6.752;2023-06-10T01:56:13;11.73;;;8.45;;
22644;SDS011;11489;50.834;6.752;2023-06-10T01:58:44;9.48;;;8.55;;
22644;SDS011;11489;50.834;6.752;2023-06-10T02:01:11;9.90;;;8.55;;
22644;SDS011;11489;50.834;6.752;2023-06-10T02:03:36;9.45;;;8.43;;
22644;SDS011;11489;50.834;6.752;2023-06-10T02:06:02;11.65;;;7.90;;
22644;SDS011;11489;50.834;6.752;2023-06-10T02:08:28;11.45;;;8.32;;
22644;SDS011;11489;50.834;6.752;2023-06-10T02:10:54;10.15;;;8.38;;
22644;SDS011;11489;50.834;6.752;2023-06-10T02:13:19;10.18;;;8.07;;
22644;SDS011;11489;50.834;6.752;2023-06-10T02:15:45;9.00;;;8.10;;
22644;SDS011;11489;50.834;6.752;2023-06-10T02:18:11;13.35;;;8.25;;
22644;SDS011;11489;50.834;6.752;2023-06-10T02:20:37;9.98;;;8.13;;
22644;SDS011;11489;50.834;6.752;2023-06-10T02:23:03;10.20;;;8.13;;
22644;SDS011;11489;50.834;6.752;2023-06-10T02:25:29;11.60;;;8.70;;
22644;SDS011;11489;50.834;6.752;2023-06-10T02:27:54;11.32;;;8.57;;
22644;SDS011;11489;50.834;6.752;2023-06-10T02:30:20;13.02;;;8.60;;
22644;SDS011;11489;50.834;6.752;2023-06-10T02:32:46;12.13;;;8.70;;
22644;SDS011;11489;50.834;6.752;2023-06-10T02:35:16;14.18;;;8.48;;
22644;SDS011;11489;50.834;6.752;2023-06-10T02:37:42;10.60;;;8.88;;
22644;SDS011;11489;50.834;6.752;2023-06-10T02:40:08;10.38;;;8.63;;
22644;SDS011;11489;50.834;6.752;2023-06-10T02:42:35;12.25;;;8.48;;
22644;SDS011;11489;50.834;6.752;2023-06-10T02:45:01;14.52;;;8.90;;
22644;SDS011;11489;50.834;6.752;2023-06-10T02:47:27;11.85;;;9.15;;
22644;SDS011;11489;50.834;6.752;2023-06-10T02:49:53;12.65;;;8.23;;
22644;SDS011;11489;50.834;6.752;2023-06-10T02:52:18;9.20;;;8.23;;
22644;SDS011;11489;50.834;6.752;2023-06-10T02:54:45;11.70;;;8.68;;
22644;SDS011;11489;50.834;6.752;2023-06-10T02:57:11;10.98;;;9.10;;
22644;SDS011;11489;50.834;6.752;2023-06-10T02:59:37;13.45;;;8.80;;
22644;SDS011;11489;50.834;6.752;2023-06-10T03:02:02;9.82;;;8.43;;
22644;SDS011;11489;50.834;6.752;2023-06-10T03:04:28;10.70;;;8.40;;
22644;SDS011;11489;50.834;6.752;2023-06-10T03:06:55;12.77;;;8.93;;
22644;SDS011;11489;50.834;6.752;2023-06-10T03:09:21;11.57;;;8.50;;
22644;SDS011;11489;50.834;6.752;2023-06-10T03:11:46;10.38;;;8.90;;
22644;SDS011;11489;50.834;6.752;2023-06-10T03:14:12;10.90;;;8.68;;
22644;SDS011;11489;50.834;6.752;2023-06-10T03:16:38;9.75;;;8.20;;
22644;SDS011;11489;50.834;6.752;2023-06-10T03:19:07;11.93;;;9.18;;
22644;SDS011;11489;50.834;6.752;2023-06-10T03:21:36;15.30;;;8.95;;
22644;SDS011;11489;50.834;6.752;2023-06-10T03:24:02;11.38;;;9.23;;
22644;SDS011;11489;50.834;6.752;2023-06-10T03:26:39;10.23;;;8.68;;
22644;SDS011;11489;50.834;6.752;2023-06-10T03:54:25;9.15;;;7.97;;
22644;SDS011;11489;50.834;6.752;2023-06-10T04:00:54;10.93;;;8.10;;
22644;SDS011;11489;50.834;6.752;2023-06-10T04:23:47;11.30;;;7.97;;
22644;SDS011;11489;50.834;6.752;2023-06-10T04:33:40;11.52;;;7.65;;
22644;SDS011;11489;50.834;6.752;2023-06-10T04:49:14;12.10;;;7.53;;
22644;SDS011;11489;50.834;6.752;2023-06-10T04:52:36;9.85;;;7.90;;
22644;SDS011;11489;50.834;6.752;2023-06-10T05:03:10;12.88;;;8.10;;
22644;SDS011;11489;50.834;6.752;2023-06-10T05:13:35;9.13;;;8.05;;
22644;SDS011;11489;50.834;6.752;2023-06-10T05:17:11;9.82;;;8.32;;
22644;SDS011;11489;50.834;6.752;2023-06-10T05:24:04;12.98;;;8.93;;
22644;SDS011;11489;50.834;6.752;2023-06-10T05:27:43;11.15;;;8.95;;
22644;SDS011;11489;50.834;6.752;2023-06-10T05:30:41;10.93;;;8.93;;
22644;SDS011;11489;50.834;6.752;2023-06-10T05:33:50;10.52;;;9.38;;
22644;SDS011;11489;50.834;6.752;2023-06-10T05:37:15;10.20;;;9.10;;
22644;SDS011;11489;50.834;6.752;2023-06-10T05:40:34;10.25;;;9.15;;
22644;SDS011;11489;50.834;6.752;2023-06-10T05:43:53;10.88;;;9.13;;
22644;SDS011;11489;50.834;6.752;2023-06-10T05:50:30;10.18;;;8.85;;
22644;SDS011;11489;50.834;6.752;2023-06-10T05:54:01;10.63;;;8.98;;
22644;SDS011;11489;50.834;6.752;2023-06-10T06:00:26;11.13;;;9.32;;
22644;SDS011;11489;50.834;6.752;2023-06-10T06:08:04;12.48;;;9.32;;
22644;SDS011;11489;50.834;6.752;2023-06-10T06:11:19;12.63;;;8.85;;
22644;SDS011;11489;50.834;6.752;2023-06-10T06:26:31;9.63;;;8.13;;
22644;SDS011;11489;50.834;6.752;2023-06-10T06:28:57;12.73;;;8.68;;
22644;SDS011;11489;50.834;6.752;2023-06-10T06:31:23;10.77;;;8.57;;
22644;SDS011;11489;50.834;6.752;2023-06-10T06:33:49;10.90;;;8.38;;
22644;SDS011;11489;50.834;6.752;2023-06-10T06:36:14;11.45;;;7.90;;
22644;SDS011;11489;50.834;6.752;2023-06-10T06:38:40;10.32;;;7.28;;
22644;SDS011;11489;50.834;6.752;2023-06-10T06:41:06;9.38;;;6.90;;
22644;SDS011;11489;50.834;6.752;2023-06-10T06:43:31;14.55;;;7.35;;
22644;SDS011;11489;50.834;6.752;2023-06-10T06:45:58;8.30;;;7.40;;
22644;SDS011;11489;50.834;6.752;2023-06-10T06:48:24;7.70;;;6.82;;
22644;SDS011;11489;50.834;6.752;2023-06-10T06:50:49;7.47;;;6.40;;
22644;SDS011;11489;50.834;6.752;2023-06-10T06:53:15;7.93;;;6.25;;
22644;SDS011;11489;50.834;6.752;2023-06-10T06:55:41;6.70;;;6.07;;
22644;SDS011;11489;50.834;6.752;2023-06-10T06:58:06;7.20;;;6.25;;
22644;SDS011;11489;50.834;6.752;2023-06-10T07:00:32;7.35;;;6.20;;
22644;SDS011;11489;50.834;6.752;2023-06-10T07:02:58;6.70;;;6.00;;
22644;SDS011;11489;50.834;6.752;2023-06-10T07:05:24;6.68;;;5.70;;
22644;SDS011;11489;50.834;6.752;2023-06-10T07:07:53;7.28;;;5.78;;
22644;SDS011;11489;50.834;6.752;2023-06-10T07:10:24;6.75;;;5.85;;
22644;SDS011;11489;50.834;6.752;2023-06-10T07:12:50;7.13;;;5.97;;
22644;SDS011;11489;50.834;6.752;2023-06-10T07:15:16;6.80;;;5.97;;
22644;SDS011;11489;50.834;6.752;2023-06-10T07:17:42;8.00;;;5.90;;
22644;SDS011;11489;50.834;6.752;2023-06-10T07:20:07;6.55;;;5.40;;
22644;SDS011;11489;50.834;6.752;2023-06-10T07:22:33;6.82;;;5.60;;
22644;SDS011;11489;50.834;6.752;2023-06-10T07:24:59;10.88;;;6.65;;
22644;SDS011;11489;50.834;6.752;2023-06-10T07:27:25;20.25;;;7.00;;
22644;SDS011;11489;50.834;6.752;2023-06-10T07:29:50;13.98;;;6.53;;
22644;SDS011;11489;50.834;6.752;2023-06-10T07:32:17;13.70;;;6.50;;
22644;SDS011;11489;50.834;6.752;2023-06-10T07:34:43;9.98;;;6.05;;
22644;SDS011;11489;50.834;6.752;2023-06-10T07:37:09;14.13;;;6.50;;
22644;SDS011;11489;50.834;6.752;2023-06-10T07:39:34;8.05;;;5.75;;
22644;SDS011;11489;50.834;6.752;2023-06-10T07:42:00;7.15;;;4.82;;
22644;SDS011;11489;50.834;6.752;2023-06-10T07:44:26;7.10;;;5.65;;
22644;SDS011;11489;50.834;6.752;2023-06-10T07:46:52;7.05;;;5.10;;
22644;SDS011;11489;50.834;6.752;2023-06-10T07:49:17;6.93;;;5.25;;
22644;SDS011;11489;50.834;6.752;2023-06-10T07:51:43;6.93;;;5.13;;
22644;SDS011;11489;50.834;6.752;2023-06-10T07:54:09;6.40;;;5.32;;
22644;SDS011;11489;50.834;6.752;2023-06-10T07:56:35;5.95;;;4.78;;
22644;SDS011;11489;50.834;6.752;2023-06-10T07:59:01;5.70;;;5.10;;
22644;SDS011;11489;50.834;6.752;2023-06-10T08:01:26;6.50;;;4.65;;
22644;SDS011;11489;50.834;6.752;2023-06-10T08:03:52;6.38;;;5.10;;
22644;SDS011;11489;50.834;6.752;2023-06-10T08:06:18;6.65;;;5.40;;
22644;SDS011;11489;50.834;6.752;2023-06-10T08:08:43;8.10;;;4.88;;
22644;SDS011;11489;50.834;6.752;2023-06-10T08:11:11;7.18;;;4.93;;
22644;SDS011;11489;50.834;6.752;2023-06-10T08:13:36;5.65;;;5.15;;
22644;SDS011;11489;50.834;6.752;2023-06-10T08:16:02;6.43;;;4.82;;
22644;SDS011;11489;50.834;6.752;2023-06-10T08:18:29;5.80;;;5.20;;
22644;SDS011;11489;50.834;6.752;2023-06-10T08:20:55;5.88;;;5.28;;
22644;SDS011;11489;50.834;6.752;2023-06-10T08:23:20;5.63;;;4.97;;
22644;SDS011;11489;50.834;6.752;2023-06-10T08:25:46;5.65;;;4.85;;
22644;SDS011;11489;50.834;6.752;2023-06-10T08:28:12;5.93;;;4.72;;
22644;SDS011;11489;50.834;6.752;2023-06-10T08:30:37;5.90;;;5.03;;
22644;SDS011;11489;50.834;6.752;2023-06-10T08:33:03;5.28;;;4.78;;
22644;SDS011;11489;50.834;6.752;2023-06-10T08:35:29;5.90;;;5.25;;
22644;SDS011;11489;50.834;6.752;2023-06-10T08:37:55;5.50;;;4.80;;
22644;SDS011;11489;50.834;6.752;2023-06-10T08:40:20;5.25;;;4.75;;
22644;SDS011;11489;50.834;6.752;2023-06-10T08:42:54;5.85;;;5.25;;
22644;SDS011;11489;50.834;6.752;2023-06-10T08:45:36;6.55;;;5.03;;
22644;SDS011;11489;50.834;6.752;2023-06-10T08:48:05;5.68;;;4.78;;
22644;SDS011;11489;50.834;6.752;2023-06-10T08:50:33;5.85;;;5.25;;
22644;SDS011;11489;50.834;6.752;2023-06-10T08:53:01;7.97;;;5.50;;
22644;SDS011;11489;50.834;6.752;2023-06-10T08:55:30;7.40;;;4.82;;
22644;SDS011;11489;50.834;6.752;2023-06-10T08:58:01;7.32;;;5.00;;
22644;SDS011;11489;50.834;6.752;2023-06-10T09:00:27;5.75;;;4.80;;
22644;SDS011;11489;50.834;6.752;2023-06-10T09:02:55;5.78;;;5.28;;
22644;SDS011;11489;50.834;6.752;2023-06-10T09:05:21;6.05;;;5.45;;
22644;SDS011;11489;50.834;6.752;2023-06-10T09:07:51;6.13;;;5.32;;
22644;SDS011;11489;50.834;6.752;2023-06-10T09:10:17;6.05;;;5.18;;
22644;SDS011;11489;50.834;6.752;2023-06-10T09:12:43;5.72;;;5.03;;
22644;SDS011;11489;50.834;6.752;2023-06-10T09:15:09;7.03;;;5.65;;
22644;SDS011;11489;50.834;6.752;2023-06-10T09:17:37;6.50;;;5.35;;
22644;SDS011;11489;50.834;6.752;2023-06-10T09:20:06;6.75;;;5.60;;
22644;SDS011;11489;50.834;6.752;2023-06-10T09:22:33;8.07;;;5.55;;
22644;SDS011;11489;50.834;6.752;2023-06-10T09:25:05;6.00;;;5.40;;
22644;SDS011;11489;50.834;6.752;2023-06-10T09:27:43;6.60;;;5.88;;
22644;SDS011;11489;50.834;6.752;2023-06-10T09:30:09;7.47;;;6.03;;
22644;SDS011;11489;50.834;6.752;2023-06-10T09:32:38;7.28;;;5.57;;
22644;SDS011;11489;50.834;6.752;2023-06-10T09:35:09;6.60;;;6.00;;
22644;SDS011;11489;50.834;6.752;2023-06-10T09:37:37;6.78;;;6.05;;
22644;SDS011;11489;50.834;6.752;2023-06-10T09:40:04;8.30;;;6.50;;
22644;SDS011;11489;50.834;6.752;2023-06-10T09:42:34;6.43;;;5.80;;
22644;SDS011;11489;50.834;6.752;2023-06-10T09:45:03;9.25;;;6.30;;
22644;SDS011;11489;50.834;6.752;2023-06-10T09:47:29;7.43;;;6.00;;
22644;SDS011;11489;50.834;6.752;2023-06-10T09:49:55;6.60;;;5.93;;
22644;SDS011;11489;50.834;6.752;2023-06-10T09:52:25;8.30;;;5.88;;
22644;SDS011;11489;50.834;6.752;2023-06-10T09:54:52;6.40;;;5.80;;
22644;SDS011;11489;50.834;6.752;2023-06-10T09:57:18;8.95;;;6.10;;
22644;SDS011;11489;50.834;6.752;2023-06-10T09:59:46;6.07;;;5.50;;
22644;SDS011;11489;50.834;6.752;2023-06-10T10:02:15;7.30;;;5.32;;
22644;SDS011;11489;50.834;6.752;2023-06-10T10:04:42;5.75;;;5.15;;
22644;SDS011;11489;50.834;6.752;2023-06-10T10:07:09;5.88;;;5.30;;
22644;SDS011;11489;50.834;6.752;2023-06-10T10:09:39;5.40;;;4.80;;
22644;SDS011;11489;50.834;6.752;2023-06-10T10:12:07;6.38;;;5.43;;
22644;SDS011;11489;50.834;6.752;2023-06-10T10:14:36;6.55;;;5.45;;
22644;SDS011;11489;50.834;6.752;2023-06-10T10:17:03;6.25;;;5.03;;
22644;SDS011;11489;50.834;6.752;2023-06-10T10:19:31;6.15;;;5.10;;
22644;SDS011;11489;50.834;6.752;2023-06-10T10:22:04;7.78;;;5.50;;
22644;SDS011;11489;50.834;6.752;2023-06-10T10:24:39;7.40;;;5.75;;
22644;SDS011;11489;50.834;6.752;2023-06-10T10:27:21;7.47;;;5.10;;
22644;SDS011;11489;50.834;6.752;2023-06-10T10:30:00;5.60;;;4.97;;
22644;SDS011;11489;50.834;6.752;2023-06-10T10:32:35;6.38;;;5.38;;
22644;SDS011;11489;50.834;6.752;2023-06-10T10:35:08;5.72;;;5.13;;
22644;SDS011;11489;50.834;6.752;2023-06-10T10:37:39;6.50;;;5.45;;
22644;SDS011;11489;50.834;6.752;2023-06-10T10:40:06;7.85;;;5.82;;
22644;SDS011;11489;50.834;6.752;2023-06-10T10:42:33;7.45;;;5.15;;
22644;SDS011;11489;50.834;6.752;2023-06-10T10:45:00;6.70;;;5.65;;
22644;SDS011;11489;50.834;6.752;2023-06-10T10:47:27;6.20;;;5.60;;
22644;SDS011;11489;50.834;6.752;2023-06-10T10:49:56;6.32;;;5.18;;
22644;SDS011;11489;50.834;6.752;2023-06-10T10:52:25;10.57;;;5.53;;
22644;SDS011;11489;50.834;6.752;2023-06-10T10:55:12;5.45;;;4.95;;
22644;SDS011;11489;50.834;6.752;2023-06-10T10:57:38;6.25;;;5.65;;
22644;SDS011;11489;50.834;6.752;2023-06-10T11:00:04;6.50;;;5.25;;
22644;SDS011;11489;50.834;6.752;2023-06-10T11:04:56;6.07;;;5.47;;
22644;SDS011;11489;50.834;6.752;2023-06-10T11:07:24;7.00;;;5.45;;
22644;SDS011;11489;50.834;6.752;2023-06-10T11:09:59;5.75;;;5.22;;
22644;SDS011;11489;50.834;6.752;2023-06-10T11:15:11;5.88;;;4.95;;
22644;SDS011;11489;50.834;6.752;2023-06-10T11:17:44;5.38;;;4.88;;
22644;SDS011;11489;50.834;6.752;2023-06-10T11:28:40;5.70;;;5.18;;
22644;SDS011;11489;50.834;6.752;2023-06-10T11:31:21;5.28;;;4.75;;
22644;SDS011;11489;50.834;6.752;2023-06-10T11:33:55;5.30;;;4.90;;
22644;SDS011;11489;50.834;6.752;2023-06-10T11:36:30;5.28;;;4.75;;
22644;SDS011;11489;50.834;6.752;2023-06-10T11:38:57;5.22;;;4.72;;
22644;SDS011;11489;50.834;6.752;2023-06-10T11:41:25;5.05;;;4.55;;
22644;SDS011;11489;50.834;6.752;2023-06-10T11:43:52;5.13;;;4.68;;
22644;SDS011;11489;50.834;6.752;2023-06-10T11:46:21;5.40;;;4.68;;
22644;SDS011;11489;50.834;6.752;2023-06-10T11:48:54;5.00;;;4.60;;
22644;SDS011;11489;50.834;6.752;2023-06-10T11:51:22;5.50;;;5.00;;
22644;SDS011;11489;50.834;6.752;2023-06-10T11:53:50;5.57;;;5.07;;
22644;SDS011;11489;50.834;6.752;2023-06-10T11:56:20;5.63;;;4.70;;
22644;SDS011;11489;50.834;6.752;2023-06-10T11:58:51;5.43;;;4.93;;
22644;SDS011;11489;50.834;6.752;2023-06-10T12:01:33;7.07;;;4.68;;
22644;SDS011;11489;50.834;6.752;2023-06-10T12:04:05;5.32;;;4.82;;
22644;SDS011;11489;50.834;6.752;2023-06-10T12:06:43;5.25;;;4.68;;
22644;SDS011;11489;50.834;6.752;2023-06-10T12:09:13;4.72;;;4.32;;
22644;SDS011;11489;50.834;6.752;2023-06-10T12:11:45;8.82;;;4.50;;
22644;SDS011;11489;50.834;6.752;2023-06-10T12:14:15;6.65;;;4.28;;
22644;SDS011;11489;50.834;6.752;2023-06-10T12:16:47;5.00;;;4.50;;
22644;SDS011;11489;50.834;6.752;2023-06-10T12:19:14;6.43;;;4.45;;
22644;SDS011;11489;50.834;6.752;2023-06-10T12:21:39;5.13;;;4.18;;
22644;SDS011;11489;50.834;6.752;2023-06-10T12:24:06;5.03;;;4.60;;
22644;SDS011;11489;50.834;6.752;2023-06-10T12:26:40;7.05;;;4.40;;
22644;SDS011;11489;50.834;6.752;2023-06-10T12:29:25;5.18;;;4.57;;
22644;SDS011;11489;50.834;6.752;2023-06-10T12:34:27;5.65;;;4.78;;
22644;SDS011;11489;50.834;6.752;2023-06-10T12:36:54;4.90;;;4.47;;
22644;SDS011;11489;50.834;6.752;2023-06-10T12:39:20;5.22;;;4.70;;
22644;SDS011;11489;50.834;6.752;2023-06-10T12:41:49;5.90;;;4.53;;
22644;SDS011;11489;50.834;6.752;2023-06-10T12:44:16;5.68;;;4.60;;
22644;SDS011;11489;50.834;6.752;2023-06-10T12:46:42;5.07;;;4.40;;
22644;SDS011;11489;50.834;6.752;2023-06-10T12:49:08;7.15;;;4.68;;
22644;SDS011;11489;50.834;6.752;2023-06-10T12:51:43;6.15;;;4.80;;
22644;SDS011;11489;50.834;6.752;2023-06-10T12:54:09;5.07;;;4.50;;
22644;SDS011;11489;50.834;6.752;2023-06-10T12:56:35;5.57;;;4.43;;
22644;SDS011;11489;50.834;6.752;2023-06-10T12:59:01;5.75;;;4.40;;
22644;SDS011;11489;50.834;6.752;2023-06-10T13:01:27;5.30;;;4.50;;
22644;SDS011;11489;50.834;6.752;2023-06-10T13:03:53;4.95;;;4.40;;
22644;SDS011;11489;50.834;6.752;2023-06-10T13:06:19;5.40;;;4.40;;
22644;SDS011;11489;50.834;6.752;2023-06-10T13:08:45;4.38;;;3.97;;
22644;SDS011;11489;50.834;6.752;2023-06-10T13:11:12;4.65;;;3.92;;
22644;SDS011;11489;50.834;6.752;2023-06-10T13:13:38;4.95;;;4.47;;
22644;SDS011;11489;50.834;6.752;2023-06-10T13:16:03;4.38;;;3.97;;
22644;SDS011;11489;50.834;6.752;2023-06-10T13:18:29;4.80;;;4.00;;
22644;SDS011;11489;50.834;6.752;2023-06-10T13:20:55;4.97;;;4.47;;
22644;SDS011;11489;50.834;6.752;2023-06-10T13:23:21;5.88;;;4.18;;
22644;SDS011;11489;50.834;6.752;2023-06-10T13:25:47;4.65;;;3.67;;
22644;SDS011;11489;50.834;6.752;2023-06-10T13:28:12;4.40;;;4.00;;
22644;SDS011;11489;50.834;6.752;2023-06-10T13:30:38;4.30;;;3.90;;
22644;SDS011;11489;50.834;6.752;2023-06-10T13:33:05;3.92;;;3.63;;
22644;SDS011;11489;50.834;6.752;2023-06-10T13:35:31;6.25;;;3.95;;
22644;SDS011;11489;50.834;6.752;2023-06-10T13:37:57;4.30;;;3.90;;
22644;SDS011;11489;50.834;6.752;2023-06-10T13:40:22;5.28;;;4.22;;
22644;SDS011;11489;50.834;6.752;2023-06-10T13:42:48;5.82;;;4.15;;
22644;SDS011;11489;50.834;6.752;2023-06-10T13:45:15;4.28;;;3.83;;
22644;SDS011;11489;50.834;6.752;2023-06-10T13:47:42;4.93;;;4.00;;
22644;SDS011;11489;50.834;6.752;2023-06-10T13:50:07;4.35;;;3.90;;
22644;SDS011;11489;50.834;6.752;2023-06-10T13:52:33;5.22;;;3.88;;
22644;SDS011;11489;50.834;6.752;2023-06-10T13:54:59;5.15;;;3.67;;
22644;SDS011;11489;50.834;6.752;2023-06-10T13:57:25;7.18;;;4.30;;
22644;SDS011;11489;50.834;6.752;2023-06-10T13:59:50;3.67;;;3.38;;
22644;SDS011;11489;50.834;6.752;2023-06-10T14:02:16;5.63;;;4.20;;
22644;SDS011;11489;50.834;6.752;2023-06-10T14:04:42;6.45;;;4.38;;
22644;SDS011;11489;50.834;6.752;2023-06-10T14:07:08;4.43;;;4.03;;
22644;SDS011;11489;50.834;6.752;2023-06-10T14:09:33;5.45;;;4.00;;
22644;SDS011;11489;50.834;6.752;2023-06-10T14:11:59;3.90;;;3.60;;
22644;SDS011;11489;50.834;6.752;2023-06-10T14:14:25;3.95;;;3.55;;
22644;SDS011;11489;50.834;6.752;2023-06-10T14:16:50;4.57;;;3.70;;
22644;SDS011;11489;50.834;6.752;2023-06-10T14:19:16;3.83;;;3.53;;
22644;SDS011;11489;50.834;6.752;2023-06-10T14:21:42;3.78;;;3.45;;
22644;SDS011;11489;50.834;6.752;2023-06-10T14:24:07;7.93;;;3.50;;
22644;SDS011;11489;50.834;6.752;2023-06-10T14:26:33;3.85;;;3.55;;
22644;SDS011;11489;50.834;6.752;2023-06-10T14:28:58;4.38;;;3.80;;
22644;SDS011;11489;50.834;6.752;2023-06-10T14:31:24;4.15;;;3.72;;
22644;SDS011;11489;50.834;6.752;2023-06-10T14:33:50;3.88;;;3.58;;
22644;SDS011;11489;50.834;6.752;2023-06-10T14:36:15;4.57;;;4.18;;
22644;SDS011;11489;50.834;6.752;2023-06-10T14:38:41;4.53;;;4.13;;
22644;SDS011;11489;50.834;6.752;2023-06-10T14:41:07;3.80;;;3.50;;
22644;SDS011;11489;50.834;6.752;2023-06-10T14:43:32;3.67;;;3.38;;
22644;SDS011;11489;50.834;6.752;2023-06-10T14:45:58;3.55;;;3.25;;
22644;SDS011;11489;50.834;6.752;2023-06-10T14:48:24;4.05;;;3.65;;
22644;SDS011;11489;50.834;6.752;2023-06-10T14:50:49;4.03;;;3.58;;
22644;SDS011;11489;50.834;6.752;2023-06-10T14:53:20;5.25;;;4.00;;
22644;SDS011;11489;50.834;6.752;2023-06-10T14:55:46;9.75;;;3.80;;
22644;SDS011;11489;50.834;6.752;2023-06-10T14:58:11;5.00;;;3.47;;
22644;SDS011;11489;50.834;6.752;2023-06-10T15:00:37;7.68;;;3.55;;
22644;SDS011;11489;50.834;6.752;2023-06-10T15:03:03;4.53;;;3.55;;
22644;SDS011;11489;50.834;6.752;2023-06-10T15:05:28;5.00;;;3.33;;
22644;SDS011;11489;50.834;6.752;2023-06-10T15:07:54;3.85;;;3.33;;
22644;SDS011;11489;50.834;6.752;2023-06-10T15:10:20;4.75;;;3.80;;
22644;SDS011;11489;50.834;6.752;2023-06-10T15:12:46;4.03;;;3.72;;
22644;SDS011;11489;50.834;6.752;2023-06-10T15:15:12;3.92;;;3.45;;
22644;SDS011;11489;50.834;6.752;2023-06-10T15:17:38;4.32;;;3.65;;
22644;SDS011;11489;50.834;6.752;2023-06-10T15:20:04;4.05;;;3.65;;
22644;SDS011;11489;50.834;6.752;2023-06-10T15:22:30;4.95;;;4.45;;
22644;SDS011;11489;50.834;6.752;2023-06-10T15:24:56;4.78;;;4.28;;
22644;SDS011;11489;50.834;6.752;2023-06-10T15:27:22;4.40;;;4.00;;
22644;SDS011;11489;50.834;6.752;2023-06-10T15:29:48;4.38;;;3.70;;
22644;SDS011;11489;50.834;6.752;2023-06-10T15:32:14;4.15;;;3.75;;
22644;SDS011;11489;50.834;6.752;2023-06-10T15:34:40;4.65;;;3.72;;
22644;SDS011;11489;50.834;6.752;2023-06-10T15:37:05;4.60;;;4.18;;
22644;SDS011;11489;50.834;6.752;2023-06-10T15:39:31;4.47;;;4.07;;
22644;SDS011;11489;50.834;6.752;2023-06-10T15:41:57;3.85;;;3.55;;
22644;SDS011;11489;50.834;6.752;2023-06-10T15:44:22;3.90;;;3.53;;
22644;SDS011;11489;50.834;6.752;2023-06-10T15:46:48;4.07;;;3.78;;
22644;SDS011;11489;50.834;6.752;2023-06-10T15:49:15;3.83;;;3.47;;
22644;SDS011;11489;50.834;6.752;2023-06-10T15:51:41;4.50;;;4.00;;
22644;SDS011;11489;50.834;6.752;2023-06-10T15:54:06;3.80;;;3.50;;
22644;SDS011;11489;50.834;6.752;2023-06-10T15:56:32;4.15;;;3.75;;
22644;SDS011;11489;50.834;6.752;2023-06-10T15:58:58;4.70;;;3.80;;
22644;SDS011;11489;50.834;6.752;2023-06-10T16:01:23;6.40;;;3.92;;
22644;SDS011;11489;50.834;6.752;2023-06-10T16:03:49;4.25;;;3.53;;
22644;SDS011;11489;50.834;6.752;2023-06-10T16:06:15;4.30;;;3.80;;
22644;SDS011;11489;50.834;6.752;2023-06-10T16:08:40;4.72;;;4.18;;
22644;SDS011;11489;50.834;6.752;2023-06-10T16:11:06;3.95;;;3.65;;
22644;SDS011;11489;50.834;6.752;2023-06-10T16:13:33;4.38;;;3.70;;
22644;SDS011;11489;50.834;6.752;2023-06-10T16:15:59;5.72;;;3.97;;
22644;SDS011;11489;50.834;6.752;2023-06-10T16:18:24;5.63;;;4.07;;
22644;SDS011;11489;50.834;6.752;2023-06-10T16:20:50;3.97;;;3.65;;
22644;SDS011;11489;50.834;6.752;2023-06-10T16:23:16;5.80;;;3.63;;
22644;SDS011;11489;50.834;6.752;2023-06-10T16:25:41;3.83;;;3.53;;
22644;SDS011;11489;50.834;6.752;2023-06-10T16:28:07;4.95;;;3.70;;
22644;SDS011;11489;50.834;6.752;2023-06-10T16:30:33;4.50;;;3.67;;
22644;SDS011;11489;50.834;6.752;2023-06-10T16:32:58;4.00;;;3.47;;
22644;SDS011;11489;50.834;6.752;2023-06-10T16:35:24;3.63;;;3.33;;
22644;SDS011;11489;50.834;6.752;2023-06-10T16:37:50;4.18;;;3.72;;
22644;SDS011;11489;50.834;6.752;2023-06-10T16:40:16;4.93;;;3.60;;
22644;SDS011;11489;50.834;6.752;2023-06-10T16:42:42;4.00;;;3.30;;
22644;SDS011;11489;50.834;6.752;2023-06-10T16:45:08;3.58;;;3.28;;
22644;SDS011;11489;50.834;6.752;2023-06-10T16:47:35;3.50;;;3.20;;
22644;SDS011;11489;50.834;6.752;2023-06-10T16:50:00;3.65;;;3.35;;
22644;SDS011;11489;50.834;6.752;2023-06-10T16:52:26;5.78;;;3.60;;
22644;SDS011;11489;50.834;6.752;2023-06-10T16:54:52;4.78;;;3.38;;
22644;SDS011;11489;50.834;6.752;2023-06-10T16:57:18;4.85;;;3.78;;
22644;SDS011;11489;50.834;6.752;2023-06-10T16:59:43;4.63;;;3.90;;
22644;SDS011;11489;50.834;6.752;2023-06-10T17:02:09;4.75;;;3.85;;
22644;SDS011;11489;50.834;6.752;2023-06-10T17:04:35;3.80;;;3.47;;
22644;SDS011;11489;50.834;6.752;2023-06-10T17:07:00;4.20;;;3.55;;
22644;SDS011;11489;50.834;6.752;2023-06-10T17:09:26;5.03;;;4.20;;